createdAt,value
2022-10-22T00:01:57.272Z,5.21
2022-10-22T00:04:23.801Z,5.22
2022-10-22T00:06:50.270Z,5.21
2022-10-22T00:09:17.346Z,5.18
2022-10-22T00:11:43.966Z,5.19
2022-10-22T00:14:11.673Z,5.18
2022-10-22T00:16:38.244Z,5.12
2022-10-22T00:19:04.717Z,5.08
2022-10-22T00:21:31.216Z,5.08
2022-10-22T00:23:57.740Z,5.08
2022-10-22T00:26:24.304Z,5.04
2022-10-22T00:28:50.767Z,5.08
2022-10-22T00:31:17.319Z,5.08
2022-10-22T00:33:46.864Z,5.01
2022-10-22T00:36:15.160Z,5.02
2022-10-22T00:38:42.105Z,5.00
2022-10-22T00:41:09.002Z,4.98
2022-10-22T00:43:54.000Z,4.98
2022-10-22T00:46:20.482Z,4.95
2022-10-22T00:48:47.022Z,4.96
2022-10-22T00:51:14.525Z,4.95
2022-10-22T00:53:47.695Z,4.93
2022-10-22T00:56:14.388Z,4.94
2022-10-22T00:58:47.823Z,4.97
2022-10-22T01:01:18.284Z,4.97
2022-10-22T01:03:44.809Z,4.96
2022-10-22T01:06:19.147Z,4.94
2022-10-22T01:08:48.356Z,4.94
2022-10-22T01:11:34.884Z,4.96
2022-10-22T01:14:13.197Z,4.94
2022-10-22T01:16:59.756Z,4.97
2022-10-22T01:19:45.169Z,5.03
2022-10-22T01:22:20.916Z,4.96
2022-10-22T01:25:05.443Z,4.96
2022-10-22T01:27:52.839Z,4.94
2022-10-22T01:30:20.374Z,4.93
2022-10-22T01:32:51.230Z,4.95
2022-10-22T01:35:23.091Z,4.99
2022-10-22T01:37:54.140Z,4.98
2022-10-22T01:40:23.019Z,4.96
2022-10-22T01:43:15.592Z,4.95
2022-10-22T01:45:47.141Z,4.98
2022-10-22T01:48:38.989Z,5.05
2022-10-22T01:51:19.359Z,5.05
2022-10-22T01:54:10.301Z,5.03
2022-10-22T01:56:45.846Z,5.06
2022-10-22T01:59:21.919Z,5.05
2022-10-22T02:01:54.361Z,5.01
2022-10-22T02:04:26.802Z,5.00
2022-10-22T02:06:57.543Z,4.97
2022-10-22T02:09:28.331Z,5.03
2022-10-22T02:11:57.123Z,5.01
2022-10-22T02:14:27.993Z,5.00
2022-10-22T02:16:57.385Z,5.01
2022-10-22T02:19:44.138Z,5.01
2022-10-22T02:22:10.949Z,4.97
2022-10-22T02:24:37.623Z,5.04
2022-10-22T02:27:26.016Z,5.03
2022-10-22T02:29:57.097Z,4.96
2022-10-22T02:32:28.375Z,5.01
2022-10-22T02:34:56.900Z,5.04
2022-10-22T02:37:25.658Z,5.03
2022-10-22T02:39:53.925Z,5.02
2022-10-22T02:42:20.413Z,5.06
2022-10-22T02:44:46.934Z,5.04
2022-10-22T02:47:13.459Z,5.02
2022-10-22T02:49:39.921Z,4.95
2022-10-22T02:52:06.379Z,4.95
2022-10-22T02:54:33.096Z,4.92
2022-10-22T02:56:59.545Z,4.91
2022-10-22T02:59:26.012Z,4.93
2022-10-22T03:01:52.599Z,4.93
2022-10-22T03:04:19.104Z,4.93
2022-10-22T03:06:45.559Z,4.97
2022-10-22T03:09:12.143Z,4.95
2022-10-22T03:11:38.621Z,4.96
2022-10-22T03:14:05.092Z,4.98
2022-10-22T03:16:31.816Z,5.01
2022-10-22T03:18:58.331Z,4.97
2022-10-22T03:21:37.007Z,4.99
2022-10-22T03:24:10.322Z,5.05
2022-10-22T03:26:38.567Z,5.05
2022-10-22T03:29:05.587Z,5.07
2022-10-22T03:31:32.148Z,5.01
2022-10-22T03:33:58.649Z,5.00
2022-10-22T03:36:25.936Z,4.95
2022-10-22T03:38:52.447Z,4.96
2022-10-22T03:41:18.991Z,4.93
2022-10-22T03:43:45.725Z,4.92
2022-10-22T03:46:12.183Z,4.88
2022-10-22T03:48:38.642Z,4.89
2022-10-22T03:51:05.437Z,4.87
2022-10-22T03:53:31.899Z,4.87
2022-10-22T03:55:58.359Z,4.86
2022-10-22T03:58:24.955Z,4.84
2022-10-22T04:00:51.565Z,4.83
2022-10-22T04:03:18.071Z,4.85
2022-10-22T04:05:44.699Z,4.83
2022-10-22T04:08:11.174Z,4.89
2022-10-22T04:10:37.644Z,4.88
2022-10-22T04:13:04.226Z,4.92
2022-10-22T04:15:30.719Z,4.92
2022-10-22T04:17:57.293Z,4.91
2022-10-22T04:20:23.855Z,4.93
2022-10-22T04:22:50.317Z,4.98
2022-10-22T04:25:16.812Z,4.98
2022-10-22T04:27:43.513Z,4.96
2022-10-22T04:30:10.522Z,4.90
2022-10-22T04:32:37.780Z,4.93
2022-10-22T04:35:04.953Z,4.93
2022-10-22T04:37:31.430Z,4.98
2022-10-22T04:39:58.328Z,5.01
2022-10-22T04:42:25.134Z,5.05
2022-10-22T04:44:51.598Z,5.00
2022-10-22T04:47:18.093Z,5.01
2022-10-22T04:49:44.686Z,5.00
2022-10-22T04:52:11.170Z,5.04
2022-10-22T04:54:37.631Z,5.04
2022-10-22T04:57:04.276Z,5.06
2022-10-22T04:59:30.748Z,5.11
2022-10-22T05:01:57.212Z,5.08
2022-10-22T05:04:23.857Z,5.08
2022-10-22T05:06:50.317Z,5.09
2022-10-22T05:09:19.215Z,5.09
2022-10-22T05:11:47.420Z,5.13
2022-10-22T05:14:16.718Z,5.15
2022-10-22T05:16:43.635Z,5.18
2022-10-22T05:19:16.463Z,5.24
2022-10-22T05:21:42.952Z,5.31
2022-10-22T05:24:09.416Z,5.34
2022-10-22T05:26:36.016Z,5.41
2022-10-22T05:29:02.565Z,5.45
2022-10-22T05:31:29.056Z,5.46
2022-10-22T05:33:55.923Z,5.48
2022-10-22T05:36:23.289Z,5.55
2022-10-22T05:38:50.287Z,5.60
2022-10-22T05:41:22.627Z,5.64
2022-10-22T05:43:49.493Z,5.64
2022-10-22T05:46:22.473Z,5.71
2022-10-22T05:48:51.802Z,5.75
2022-10-22T05:51:19.031Z,5.79
2022-10-22T05:53:46.014Z,5.76
2022-10-22T05:56:15.515Z,5.83
2022-10-22T05:58:43.621Z,5.89
2022-10-22T06:01:18.744Z,5.93
2022-10-22T06:03:46.767Z,5.91
2022-10-22T06:06:33.963Z,5.89
2022-10-22T06:09:31.592Z,5.90
2022-10-22T06:11:58.631Z,5.84
2022-10-22T06:14:26.809Z,5.95
2022-10-22T06:16:54.129Z,5.98
2022-10-22T06:19:22.373Z,6.07
2022-10-22T06:21:49.164Z,6.18
2022-10-22T06:24:16.307Z,6.33
2022-10-22T06:26:43.136Z,6.35
2022-10-22T06:29:10.344Z,6.38
2022-10-22T06:31:36.926Z,6.45
2022-10-22T06:34:10.539Z,6.47
2022-10-22T06:36:38.207Z,6.52
2022-10-22T06:39:05.530Z,6.55
2022-10-22T06:41:32.078Z,6.55
2022-10-22T06:43:58.578Z,6.58
2022-10-22T06:46:26.137Z,6.60
2022-10-22T06:49:14.106Z,6.59
2022-10-22T06:51:40.997Z,6.66
2022-10-22T06:54:08.117Z,6.71
2022-10-22T06:56:34.996Z,6.74
2022-10-22T06:59:01.490Z,6.79
2022-10-22T07:01:31.840Z,6.80
2022-10-22T07:03:58.784Z,6.83
2022-10-22T07:06:26.681Z,6.83
2022-10-22T07:08:54.741Z,6.79
2022-10-22T07:11:25.460Z,6.79
2022-10-22T07:13:54.716Z,6.89
2022-10-22T07:16:21.313Z,6.96
2022-10-22T07:18:48.627Z,7.02
2022-10-22T07:21:17.508Z,7.04
2022-10-22T07:23:44.698Z,7.14
2022-10-22T07:26:14.504Z,7.12
2022-10-22T07:28:41.274Z,7.13
2022-10-22T07:31:09.630Z,7.11
2022-10-22T07:33:36.812Z,7.16
2022-10-22T07:36:06.044Z,7.29
2022-10-22T07:38:33.131Z,7.42
2022-10-22T07:41:00.081Z,7.44
2022-10-22T07:43:27.004Z,7.45
2022-10-22T07:45:53.501Z,7.51
2022-10-22T07:48:20.017Z,7.54
2022-10-22T07:50:46.496Z,7.65
2022-10-22T07:53:12.959Z,7.72
2022-10-22T07:55:39.489Z,7.80
2022-10-22T07:58:05.964Z,7.88
2022-10-22T08:00:32.475Z,7.90
2022-10-22T08:02:59.054Z,7.90
2022-10-22T08:05:25.607Z,7.88
2022-10-22T08:07:52.096Z,8.05
2022-10-22T08:10:18.834Z,8.04
2022-10-22T08:12:45.317Z,8.04
2022-10-22T08:15:11.809Z,7.99
2022-10-22T08:17:38.781Z,8.03
2022-10-22T08:20:06.134Z,8.16
2022-10-22T08:22:32.596Z,8.18
2022-10-22T08:24:59.094Z,8.18
2022-10-22T08:27:25.721Z,8.20
2022-10-22T08:29:52.216Z,8.32
2022-10-22T08:32:18.782Z,8.37
2022-10-22T08:34:46.910Z,8.42
2022-10-22T08:37:13.387Z,8.43
2022-10-22T08:39:40.756Z,8.59
2022-10-22T08:42:38.139Z,8.74
2022-10-22T08:45:16.880Z,8.88
2022-10-22T08:47:49.329Z,9.07
2022-10-22T08:50:39.802Z,9.02
2022-10-22T08:53:16.450Z,9.07
2022-10-22T08:55:43.885Z,9.10
2022-10-22T08:58:22.886Z,9.19
2022-10-22T09:01:11.220Z,9.19
2022-10-22T09:03:37.639Z,9.19
2022-10-22T09:06:20.380Z,8.77
2022-10-22T09:08:48.016Z,8.77
2022-10-22T09:11:36.578Z,8.80
2022-10-22T09:14:04.334Z,8.86
2022-10-22T09:16:39.107Z,8.91
2022-10-22T09:19:27.335Z,8.90
2022-10-22T09:22:03.816Z,9.00
2022-10-22T09:24:42.055Z,9.10
2022-10-22T09:27:18.367Z,9.16
2022-10-22T09:29:46.979Z,9.32
2022-10-22T09:32:14.612Z,9.48
2022-10-22T09:34:43.642Z,9.52
2022-10-22T09:37:11.014Z,9.44
2022-10-22T09:39:40.332Z,9.40
2022-10-22T09:42:07.848Z,9.33
2022-10-22T09:44:35.801Z,9.30
2022-10-22T09:47:43.339Z,9.32
2022-10-22T09:50:22.633Z,9.37
2022-10-22T09:53:35.229Z,9.07
2022-10-22T09:56:09.148Z,8.97
2022-10-22T09:58:47.296Z,9.01
2022-10-22T10:01:21.970Z,9.15
2022-10-22T10:03:49.521Z,9.14
2022-10-22T10:06:23.616Z,9.19
2022-10-22T10:08:50.532Z,9.00
2022-10-22T10:11:29.656Z,8.64
2022-10-22T10:14:14.023Z,8.42
2022-10-22T10:17:00.833Z,8.43
2022-10-22T10:20:00.042Z,8.37
2022-10-22T10:22:52.953Z,8.50
2022-10-22T10:25:41.298Z,8.46
2022-10-22T10:28:19.889Z,8.54
2022-10-22T10:30:59.420Z,8.50
2022-10-22T10:33:55.227Z,8.51
2022-10-22T10:36:37.467Z,8.38
2022-10-22T10:39:03.998Z,8.33
2022-10-22T10:41:51.731Z,8.45
2022-10-22T10:44:27.407Z,8.60
2022-10-22T10:47:19.185Z,8.73
2022-10-22T10:49:46.513Z,8.85
2022-10-22T10:52:48.440Z,8.98
2022-10-22T10:55:32.403Z,9.02
2022-10-22T10:58:12.381Z,9.06
2022-10-22T11:00:53.439Z,9.00
2022-10-22T11:03:52.571Z,8.96
2022-10-22T11:06:24.566Z,8.94
2022-10-22T11:08:59.306Z,8.88
2022-10-22T11:11:39.726Z,8.85
2022-10-22T11:14:29.962Z,8.85
2022-10-22T11:17:04.493Z,8.94
2022-10-22T11:19:59.975Z,9.02
2022-10-22T11:23:00.251Z,9.02
2022-10-22T11:25:47.530Z,8.81
2022-10-22T11:28:32.647Z,8.52
2022-10-22T11:31:07.176Z,8.20
2022-10-22T11:33:57.321Z,8.15
2022-10-22T11:39:04.679Z,8.12
2022-10-22T11:41:34.318Z,8.16
2022-10-22T11:44:22.719Z,8.14
2022-10-22T11:47:15.492Z,8.09
2022-10-22T11:49:57.667Z,8.03
2022-10-22T11:52:33.214Z,8.06
2022-10-22T11:55:03.545Z,7.90
2022-10-22T11:57:37.462Z,7.73
2022-10-22T12:00:40.564Z,7.68
2022-10-22T12:03:23.421Z,7.70
2022-10-22T12:06:16.258Z,7.82
2022-10-22T12:08:49.938Z,7.91
2022-10-22T12:11:19.277Z,7.99
2022-10-22T12:14:16.444Z,8.03
2022-10-22T12:17:10.287Z,7.94
2022-10-22T12:19:48.741Z,7.91
2022-10-22T12:22:21.168Z,7.82
2022-10-22T12:24:50.057Z,7.81
2022-10-22T12:27:23.488Z,7.85
2022-10-22T12:30:00.143Z,7.82
2022-10-22T12:32:36.094Z,7.90
2022-10-22T12:35:18.103Z,7.97
2022-10-22T12:37:45.346Z,7.99
2022-10-22T12:40:27.024Z,7.94
2022-10-22T12:42:59.699Z,7.92
2022-10-22T12:45:28.766Z,7.85
2022-10-22T12:48:01.168Z,7.81
2022-10-22T12:50:52.846Z,7.82
2022-10-22T12:53:43.375Z,7.59
2022-10-22T12:56:16.246Z,7.49
2022-10-22T12:58:49.111Z,7.41
2022-10-22T13:01:17.876Z,7.41
2022-10-22T13:03:48.649Z,7.43
2022-10-22T13:06:25.997Z,7.47
2022-10-22T13:09:22.575Z,7.40
2022-10-22T13:12:02.712Z,7.31
2022-10-22T13:14:31.796Z,7.34
2022-10-22T13:17:17.146Z,7.24
2022-10-22T13:19:43.569Z,7.23
2022-10-22T13:22:30.816Z,7.17
2022-10-22T13:25:24.860Z,7.15
2022-10-22T13:27:55.775Z,7.12
2022-10-22T13:30:26.265Z,7.25
2022-10-22T13:32:56.326Z,7.09
2022-10-22T13:35:29.830Z,7.05
2022-10-22T13:37:56.305Z,7.02
2022-10-22T13:40:22.903Z,6.83
2022-10-22T13:42:49.393Z,6.82
2022-10-22T13:45:16.574Z,6.78
2022-10-22T13:47:48.311Z,6.81
2022-10-22T13:50:17.544Z,6.82
2022-10-22T13:52:47.393Z,6.87
2022-10-22T13:55:23.871Z,6.93
2022-10-22T13:57:50.326Z,7.05
2022-10-22T14:00:19.585Z,6.95
2022-10-22T14:02:48.034Z,6.98
2022-10-22T14:05:16.789Z,6.93
2022-10-22T14:07:44.156Z,6.94
2022-10-22T14:10:22.532Z,6.80
2022-10-22T14:12:52.558Z,6.82
2022-10-22T14:15:25.575Z,6.78
2022-10-22T14:17:56.944Z,6.80
2022-10-22T14:20:27.702Z,6.80
2022-10-22T14:22:54.175Z,6.70
2022-10-22T14:25:23.465Z,6.76
2022-10-22T14:27:50.056Z,6.72
2022-10-22T14:30:19.901Z,6.75
2022-10-22T14:32:46.936Z,6.62
2022-10-22T14:35:15.871Z,6.67
2022-10-22T14:37:42.341Z,6.65
2022-10-22T14:40:12.377Z,6.55
2022-10-22T14:42:47.535Z,6.59
2022-10-22T14:45:23.963Z,6.59
2022-10-22T14:47:51.655Z,6.56
2022-10-22T14:50:19.165Z,6.57
2022-10-22T14:52:45.745Z,6.61
2022-10-22T14:55:14.336Z,6.57
2022-10-22T14:57:41.457Z,6.58
2022-10-22T15:00:14.432Z,6.48
2022-10-22T15:02:41.295Z,6.45
2022-10-22T15:05:08.303Z,6.51
2022-10-22T15:07:35.656Z,6.48
2022-10-22T15:10:02.276Z,6.48
2022-10-22T15:12:28.785Z,6.46
2022-10-22T15:14:55.257Z,6.54
2022-10-22T15:17:21.848Z,6.45
2022-10-22T15:19:48.325Z,6.43
2022-10-22T15:22:15.348Z,6.42
2022-10-22T15:24:45.036Z,6.36
2022-10-22T15:27:12.225Z,6.40
2022-10-22T15:29:38.765Z,6.51
2022-10-22T15:32:05.720Z,6.51
2022-10-22T15:34:34.332Z,6.48
2022-10-22T15:37:04.124Z,6.54
2022-10-22T15:39:31.564Z,6.29
2022-10-22T15:41:58.497Z,6.36
2022-10-22T15:44:28.241Z,6.31
2022-10-22T15:46:55.589Z,6.40
2022-10-22T15:49:23.662Z,6.37
2022-10-22T15:51:50.312Z,6.34
2022-10-22T15:54:19.962Z,6.31
2022-10-22T15:56:46.979Z,6.35
2022-10-22T15:59:15.400Z,6.29
2022-10-22T16:01:42.776Z,6.29
2022-10-22T16:04:10.236Z,6.36
2022-10-22T16:06:39.976Z,6.28
2022-10-22T16:09:12.134Z,6.33
2022-10-22T16:11:39.603Z,6.37
2022-10-22T16:14:07.224Z,6.34
2022-10-22T16:16:36.573Z,6.38
2022-10-22T16:19:03.217Z,6.28
2022-10-22T16:21:29.717Z,6.28
2022-10-22T16:23:56.296Z,6.25
2022-10-22T16:26:22.768Z,6.16
2022-10-22T16:28:49.251Z,6.11
2022-10-22T16:31:17.942Z,6.26
2022-10-22T16:33:47.817Z,6.19
2022-10-22T16:36:18.516Z,6.19
2022-10-22T16:38:45.835Z,6.18
2022-10-22T16:41:23.146Z,6.20
2022-10-22T16:43:51.678Z,6.20
2022-10-22T16:46:20.538Z,6.20
2022-10-22T16:48:51.301Z,6.11
2022-10-22T16:51:20.933Z,6.06
2022-10-22T16:53:47.675Z,5.99
2022-10-22T16:56:16.085Z,6.08
2022-10-22T16:58:51.767Z,6.14
2022-10-22T17:01:20.283Z,6.12
2022-10-22T17:03:46.992Z,6.09
2022-10-22T17:06:14.114Z,6.05
2022-10-22T17:08:41.789Z,5.96
2022-10-22T17:11:17.062Z,5.94
2022-10-22T17:13:46.307Z,6.02
2022-10-22T17:16:15.294Z,5.93
2022-10-22T17:18:42.920Z,5.94
2022-10-22T17:21:11.119Z,5.90
2022-10-22T17:23:37.675Z,5.94
2022-10-22T17:26:06.726Z,5.90
2022-10-22T17:28:33.884Z,5.86
2022-10-22T17:31:04.168Z,5.80
2022-10-22T17:33:30.786Z,5.89
2022-10-22T17:35:57.677Z,5.86
2022-10-22T17:38:24.170Z,5.81
2022-10-22T17:40:50.763Z,5.72
2022-10-22T17:43:17.364Z,5.73
2022-10-22T17:45:43.827Z,5.81
2022-10-22T17:48:10.322Z,5.89
2022-10-22T17:50:41.293Z,5.80
2022-10-22T17:53:08.016Z,5.70
2022-10-22T17:55:34.486Z,5.71
2022-10-22T17:58:02.111Z,5.63
2022-10-22T18:00:29.249Z,5.68
2022-10-22T18:02:55.693Z,5.73
2022-10-22T18:07:54.766Z,5.76
2022-10-22T18:10:21.273Z,5.71
2022-10-22T18:12:47.844Z,5.68
2022-10-22T18:15:14.375Z,5.73
2022-10-22T18:17:41.119Z,5.55
2022-10-22T18:20:08.575Z,5.56
2022-10-22T18:22:36.113Z,5.52
2022-10-22T18:25:02.635Z,5.54
2022-10-22T18:27:29.263Z,5.58
2022-10-22T18:29:55.724Z,5.57
2022-10-22T18:32:22.617Z,5.64
2022-10-22T18:34:49.192Z,5.66
2022-10-22T18:37:15.722Z,5.57
2022-10-22T18:39:42.185Z,5.61
2022-10-22T18:42:08.785Z,5.55
2022-10-22T18:44:35.876Z,5.57
2022-10-22T18:47:02.365Z,5.58
2022-10-22T18:49:29.049Z,5.55
2022-10-22T18:51:55.582Z,5.54
2022-10-22T18:54:23.903Z,5.56
2022-10-22T18:56:51.691Z,5.51
2022-10-22T18:59:24.019Z,5.49
2022-10-22T19:01:53.157Z,5.45
2022-10-22T19:04:19.794Z,5.48
2022-10-22T19:06:46.444Z,5.47
2022-10-22T19:09:14.875Z,5.54
2022-10-22T19:11:42.935Z,5.49
2022-10-22T19:14:09.451Z,5.50
2022-10-22T19:16:36.155Z,5.48
2022-10-22T19:19:04.953Z,5.43
2022-10-22T19:21:31.546Z,5.40
2022-10-22T19:23:59.640Z,5.32
2022-10-22T19:26:27.309Z,5.46
2022-10-22T19:28:54.906Z,5.46
2022-10-22T19:31:23.997Z,5.35
2022-10-22T19:33:53.887Z,5.40
2022-10-22T19:36:20.913Z,5.30
2022-10-22T19:38:48.971Z,5.38
2022-10-22T19:41:18.763Z,5.31
2022-10-22T19:43:48.206Z,5.30
2022-10-22T19:46:14.804Z,5.30
2022-10-22T19:48:41.353Z,5.28
2022-10-22T19:51:10.973Z,5.15
2022-10-22T19:53:38.700Z,5.08
2022-10-22T19:56:07.369Z,5.01
2022-10-22T19:58:34.666Z,4.95
2022-10-22T20:01:10.055Z,4.89
2022-10-22T20:03:38.366Z,4.81
2022-10-22T20:06:07.465Z,4.72
2022-10-22T20:08:36.025Z,4.67
2022-10-22T20:11:02.760Z,4.45
2022-10-22T20:13:29.500Z,4.40
2022-10-22T20:15:56.777Z,4.31
2022-10-22T20:18:23.328Z,4.15
2022-10-22T20:20:50.590Z,4.14
2022-10-22T20:23:17.351Z,4.01
2022-10-22T20:25:46.227Z,3.93
2022-10-22T20:28:16.080Z,3.88
2022-10-22T20:30:44.256Z,3.87
2022-10-22T20:33:11.308Z,3.86
2022-10-22T20:35:38.279Z,3.77
2022-10-22T20:38:06.941Z,3.80
2022-10-22T20:40:33.938Z,3.97
2022-10-22T20:43:01.190Z,4.08
2022-10-22T20:45:28.161Z,4.12
2022-10-22T20:48:02.135Z,4.09
2022-10-22T20:50:30.221Z,4.23
2022-10-22T20:52:56.760Z,4.35
2022-10-22T20:55:23.480Z,4.32
2022-10-22T20:57:50.072Z,4.46
2022-10-22T21:00:16.714Z,4.53
2022-10-22T21:02:43.271Z,4.51
2022-10-22T21:05:09.831Z,4.43
2022-10-22T21:07:36.327Z,4.46
2022-10-22T21:10:03.940Z,4.31
2022-10-22T21:12:30.509Z,4.22
2022-10-22T21:14:57.031Z,4.26
2022-10-22T21:17:23.497Z,4.27
2022-10-22T21:19:50.015Z,4.28
2022-10-22T21:22:16.465Z,4.36
2022-10-22T21:24:42.920Z,4.28
2022-10-22T21:27:09.492Z,4.40
2022-10-22T21:29:35.969Z,4.45
2022-10-22T21:32:02.436Z,4.55
2022-10-22T21:34:29.300Z,4.59
2022-10-22T21:36:55.868Z,4.62
2022-10-22T21:39:22.326Z,4.67
2022-10-22T21:41:48.927Z,4.68
2022-10-22T21:44:15.532Z,4.65
2022-10-22T21:46:42.004Z,4.67
2022-10-22T21:49:09.643Z,4.69
2022-10-22T21:51:36.189Z,4.74
2022-10-22T21:54:02.734Z,4.65
2022-10-22T21:56:31.914Z,4.72
2022-10-22T21:58:58.758Z,4.71
2022-10-22T22:01:25.570Z,4.77
2022-10-22T22:03:52.855Z,4.77
2022-10-22T22:06:22.347Z,4.71
2022-10-22T22:08:51.195Z,4.68
2022-10-22T22:11:20.769Z,4.65
2022-10-22T22:13:47.603Z,4.65
2022-10-22T22:16:17.209Z,4.70
2022-10-22T22:18:44.148Z,4.55
2022-10-22T22:21:13.622Z,4.57
2022-10-22T22:23:42.938Z,4.64
2022-10-22T22:26:10.548Z,4.59
2022-10-22T22:28:37.399Z,4.56
2022-10-22T22:31:16.265Z,4.50
2022-10-22T22:33:43.639Z,4.47
2022-10-22T22:36:10.569Z,4.38
2022-10-22T22:38:37.923Z,4.32
2022-10-22T22:41:05.367Z,4.22
2022-10-22T22:43:32.140Z,4.09
2022-10-22T22:46:04.417Z,4.07
2022-10-22T22:48:31.784Z,4.07
2022-10-22T22:50:58.388Z,4.09
2022-10-22T22:53:24.919Z,4.23
2022-10-22T22:55:51.411Z,4.25
2022-10-22T22:58:17.863Z,4.20
2022-10-22T23:00:44.400Z,4.13
2022-10-22T23:03:10.856Z,4.09
2022-10-22T23:05:37.765Z,4.06
2022-10-22T23:08:04.604Z,4.08
2022-10-22T23:10:31.096Z,4.14
2022-10-22T23:12:57.555Z,4.20
2022-10-22T23:15:24.130Z,4.11
2022-10-22T23:17:50.602Z,4.10
2022-10-22T23:20:17.065Z,4.10
2022-10-22T23:22:43.925Z,4.08
2022-10-22T23:25:10.535Z,4.07
2022-10-22T23:27:37.020Z,3.92
2022-10-22T23:30:03.893Z,3.80
2022-10-22T23:32:31.136Z,3.64
2022-10-22T23:34:57.741Z,3.60
2022-10-22T23:37:24.242Z,3.50
2022-10-22T23:39:51.113Z,3.45
2022-10-22T23:42:17.688Z,3.32
2022-10-22T23:44:44.195Z,3.38
2022-10-22T23:47:10.693Z,3.30
2022-10-22T23:49:37.224Z,3.14
2022-10-22T23:52:03.823Z,3.08
2022-10-22T23:54:30.311Z,3.01
2022-10-22T23:56:56.752Z,3.01
2022-10-22T23:59:23.286Z,2.96
